sensor_id;sensor_type;location;lat;lon;timestamp;pressure;altitude;pressure_sealevel;temperature;humidity
46347;BME280;32057;47.830;19.046;2022-10-29T00:01:41;101420.41;;;12.02;100.00
46347;BME280;32057;47.830;19.046;2022-10-29T00:04:07;101419.47;;;12.00;100.00
46347;BME280;32057;47.830;19.046;2022-10-29T00:06:32;101427.59;;;12.09;100.00
46347;BME280;32057;47.830;19.046;2022-10-29T00:08:57;101420.03;;;12.17;100.00
46347;BME280;32057;47.830;19.046;2022-10-29T00:11:23;101415.00;;;12.23;100.00
46347;BME280;32057;47.830;19.046;2022-10-29T00:13:53;101415.06;;;12.26;100.00
46347;BME280;32057;47.830;19.046;2022-10-29T00:16:21;101418.72;;;12.31;100.00
46347;BME280;32057;47.830;19.046;2022-10-29T00:18:47;101407.34;;;12.29;100.00
46347;BME280;32057;47.830;19.046;2022-10-29T00:21:15;101409.97;;;12.29;100.00
46347;BME280;32057;47.830;19.046;2022-10-29T00:23:41;101406.59;;;12.33;100.00
46347;BME280;32057;47.830;19.046;2022-10-29T00:26:07;101407.41;;;12.30;100.00
46347;BME280;32057;47.830;19.046;2022-10-29T00:28:33;101411.69;;;12.28;100.00
46347;BME280;32057;47.830;19.046;2022-10-29T00:31:07;101403.88;;;12.28;100.00
46347;BME280;32057;47.830;19.046;2022-10-29T00:33:32;101406.50;;;12.30;100.00
46347;BME280;32057;47.830;19.046;2022-10-29T00:36:04;101399.41;;;12.26;100.00
46347;BME280;32057;47.830;19.046;2022-10-29T00:38:31;101404.63;;;12.26;100.00
46347;BME280;32057;47.830;19.046;2022-10-29T00:40:57;101394.13;;;12.23;100.00
46347;BME280;32057;47.830;19.046;2022-10-29T00:43:24;101394.13;;;12.23;100.00
46347;BME280;32057;47.830;19.046;2022-10-29T00:45:59;101395.00;;;12.23;100.00
46347;BME280;32057;47.830;19.046;2022-10-29T00:48:28;101395.78;;;12.21;100.00
46347;BME280;32057;47.830;19.046;2022-10-29T00:50:57;101395.78;;;12.21;100.00
46347;BME280;32057;47.830;19.046;2022-10-29T00:53:26;101383.69;;;12.23;100.00
46347;BME280;32057;47.830;19.046;2022-10-29T00:55:53;101387.97;;;12.21;100.00
46347;BME280;32057;47.830;19.046;2022-10-29T00:58:19;101381.88;;;12.22;100.00
46347;BME280;32057;47.830;19.046;2022-10-29T01:00:46;101379.16;;;12.17;100.00
46347;BME280;32057;47.830;19.046;2022-10-29T01:03:11;101370.47;;;12.18;100.00
46347;BME280;32057;47.830;19.046;2022-10-29T01:05:37;101360.94;;;12.19;100.00
46347;BME280;32057;47.830;19.046;2022-10-29T01:08:03;101366.16;;;12.19;100.00
46347;BME280;32057;47.830;19.046;2022-10-29T01:13:23;101358.16;;;12.14;100.00
46347;BME280;32057;47.830;19.046;2022-10-29T01:16:10;101368.59;;;12.14;100.00
46347;BME280;32057;47.830;19.046;2022-10-29T01:21:35;101357.97;;;12.08;100.00
46347;BME280;32057;47.830;19.046;2022-10-29T01:24:08;101363.25;;;12.09;100.00
46347;BME280;32057;47.830;19.046;2022-10-29T01:27:04;101359.78;;;12.09;100.00
46347;BME280;32057;47.830;19.046;2022-10-29T01:35:02;101357.03;;;12.04;100.00
46347;BME280;32057;47.830;19.046;2022-10-29T01:40:29;101350.91;;;12.04;100.00
46347;BME280;32057;47.830;19.046;2022-10-29T01:43:05;101347.47;;;12.05;100.00
46347;BME280;32057;47.830;19.046;2022-10-29T01:45:40;101355.44;;;12.09;100.00
46347;BME280;32057;47.830;19.046;2022-10-29T01:48:11;101354.59;;;12.10;100.00
46347;BME280;32057;47.830;19.046;2022-10-29T01:50:39;101354.59;;;12.10;100.00
46347;BME280;32057;47.830;19.046;2022-10-29T01:53:06;101350.13;;;12.06;100.00
46347;BME280;32057;47.830;19.046;2022-10-29T01:55:33;101348.28;;;12.04;100.00
46347;BME280;32057;47.830;19.046;2022-10-29T01:58:00;101350.97;;;12.05;100.00
46347;BME280;32057;47.830;19.046;2022-10-29T02:00:34;101347.38;;;12.02;100.00
46347;BME280;32057;47.830;19.046;2022-10-29T02:11:23;101340.63;;;12.08;100.00
46347;BME280;32057;47.830;19.046;2022-10-29T02:13:58;101338.09;;;12.11;100.00
46347;BME280;32057;47.830;19.046;2022-10-29T02:16:27;101334.56;;;12.09;100.00
46347;BME280;32057;47.830;19.046;2022-10-29T02:18:53;101340.63;;;12.08;100.00
46347;BME280;32057;47.830;19.046;2022-10-29T02:21:19;101337.13;;;12.08;100.00
46347;BME280;32057;47.830;19.046;2022-10-29T02:23:45;101335.41;;;12.08;100.00
46347;BME280;32057;47.830;19.046;2022-10-29T02:26:11;101334.56;;;12.09;100.00
46347;BME280;32057;47.830;19.046;2022-10-29T02:28:37;101343.31;;;12.11;100.00
46347;BME280;32057;47.830;19.046;2022-10-29T02:31:03;101351.00;;;12.07;100.00
46347;BME280;32057;47.830;19.046;2022-10-29T02:33:28;101350.03;;;12.03;100.00
46347;BME280;32057;47.830;19.046;2022-10-29T02:35:54;101352.56;;;12.02;100.00
46347;BME280;32057;47.830;19.046;2022-10-29T02:38:19;101344.69;;;12.00;100.00
46347;BME280;32057;47.830;19.046;2022-10-29T02:40:44;101340.44;;;12.02;100.00
46347;BME280;32057;47.830;19.046;2022-10-29T02:43:10;101341.88;;;11.92;100.00
46347;BME280;32057;47.830;19.046;2022-10-29T02:45:35;101346.31;;;11.95;100.00
46347;BME280;32057;47.830;19.046;2022-10-29T02:48:01;101346.31;;;11.95;100.00
46347;BME280;32057;47.830;19.046;2022-10-29T02:50:26;101347.22;;;11.97;100.00
46347;BME280;32057;47.830;19.046;2022-10-29T02:52:51;101346.19;;;11.92;100.00
46347;BME280;32057;47.830;19.046;2022-10-29T02:55:17;101339.28;;;11.94;100.00
46347;BME280;32057;47.830;19.046;2022-10-29T02:57:43;101337.59;;;11.94;100.00
46347;BME280;32057;47.830;19.046;2022-10-29T03:00:10;101330.53;;;11.92;100.00
46347;BME280;32057;47.830;19.046;2022-10-29T03:02:35;101329.78;;;11.94;100.00
46347;BME280;32057;47.830;19.046;2022-10-29T03:05:01;101329.66;;;11.91;100.00
46347;BME280;32057;47.830;19.046;2022-10-29T03:07:26;101324.56;;;11.94;100.00
46347;BME280;32057;47.830;19.046;2022-10-29T03:09:52;101333.34;;;11.98;100.00
46347;BME280;32057;47.830;19.046;2022-10-29T03:12:17;101326.38;;;11.97;100.00
46347;BME280;32057;47.830;19.046;2022-10-29T03:14:42;101325.25;;;11.89;100.00
46347;BME280;32057;47.830;19.046;2022-10-29T03:17:08;101330.31;;;11.86;100.00
46347;BME280;32057;47.830;19.046;2022-10-29T03:19:33;101328.66;;;11.88;100.00
46347;BME280;32057;47.830;19.046;2022-10-29T03:21:59;101328.66;;;11.88;100.00
46347;BME280;32057;47.830;19.046;2022-10-29T03:24:24;101321.84;;;11.91;100.00
46347;BME280;32057;47.830;19.046;2022-10-29T03:26:49;101326.25;;;11.94;100.00
46347;BME280;32057;47.830;19.046;2022-10-29T03:29:15;101326.38;;;11.97;100.00
46347;BME280;32057;47.830;19.046;2022-10-29T03:31:40;101321.16;;;11.97;100.00
46347;BME280;32057;47.830;19.046;2022-10-29T03:34:06;101329.78;;;11.96;100.00
46347;BME280;32057;47.830;19.046;2022-10-29T03:36:31;101326.22;;;11.92;100.00
46347;BME280;32057;47.830;19.046;2022-10-29T03:38:56;101323.69;;;11.95;100.00
46347;BME280;32057;47.830;19.046;2022-10-29T03:41:22;101318.44;;;11.94;100.00
46347;BME280;32057;47.830;19.046;2022-10-29T03:43:47;101323.56;;;11.91;100.00
46347;BME280;32057;47.830;19.046;2022-10-29T03:46:12;101324.34;;;11.88;100.00
46347;BME280;32057;47.830;19.046;2022-10-29T03:48:38;101317.50;;;11.92;100.00
46347;BME280;32057;47.830;19.046;2022-10-29T03:51:04;101322.72;;;11.92;100.00
46347;BME280;32057;47.830;19.046;2022-10-29T03:53:31;101325.44;;;11.95;100.00
46347;BME280;32057;47.830;19.046;2022-10-29T03:55:57;101322.88;;;11.97;100.00
46347;BME280;32057;47.830;19.046;2022-10-29T03:58:23;101321.97;;;11.96;100.00
46347;BME280;32057;47.830;19.046;2022-10-29T04:00:57;101321.00;;;11.92;100.00
46347;BME280;32057;47.830;19.046;2022-10-29T04:03:23;101307.91;;;11.91;100.00
46347;BME280;32057;47.830;19.046;2022-10-29T04:05:49;101314.66;;;11.86;100.00
46347;BME280;32057;47.830;19.046;2022-10-29T04:08:15;101313.75;;;11.84;100.00
46347;BME280;32057;47.830;19.046;2022-10-29T04:10:44;101319.88;;;11.86;100.00
46347;BME280;32057;47.830;19.046;2022-10-29T04:13:10;101320.78;;;11.86;100.00
46347;BME280;32057;47.830;19.046;2022-10-29T04:15:35;101328.56;;;11.85;100.00
46347;BME280;32057;47.830;19.046;2022-10-29T04:18:00;101323.25;;;11.82;100.00
46347;BME280;32057;47.830;19.046;2022-10-29T04:20:26;101323.16;;;11.79;100.00
46347;BME280;32057;47.830;19.046;2022-10-29T04:22:51;101321.56;;;11.84;100.00
46347;BME280;32057;47.830;19.046;2022-10-29T04:25:16;101318.22;;;11.88;100.00
46347;BME280;32057;47.830;19.046;2022-10-29T04:27:42;101318.97;;;11.84;100.00
46347;BME280;32057;47.830;19.046;2022-10-29T04:30:08;101321.66;;;11.87;100.00
46347;BME280;32057;47.830;19.046;2022-10-29T04:32:33;101327.09;;;11.93;100.00
46347;BME280;32057;47.830;19.046;2022-10-29T04:34:58;101323.75;;;11.97;100.00
46347;BME280;32057;47.830;19.046;2022-10-29T04:37:27;101322.91;;;11.98;100.00
46347;BME280;32057;47.830;19.046;2022-10-29T04:39:53;101319.41;;;11.98;100.00
46347;BME280;32057;47.830;19.046;2022-10-29T04:42:18;101322.06;;;11.99;100.00
46347;BME280;32057;47.830;19.046;2022-10-29T04:44:44;101330.72;;;11.98;100.00
46347;BME280;32057;47.830;19.046;2022-10-29T04:47:09;101343.81;;;12.00;100.00
46347;BME280;32057;47.830;19.046;2022-10-29T04:49:34;101333.38;;;12.00;100.00
46347;BME280;32057;47.830;19.046;2022-10-29T04:52:00;101337.72;;;11.99;100.00
46347;BME280;32057;47.830;19.046;2022-10-29T04:54:25;101332.50;;;11.99;100.00
46347;BME280;32057;47.830;19.046;2022-10-29T04:56:50;101323.75;;;11.97;100.00
46347;BME280;32057;47.830;19.046;2022-10-29T04:59:16;101333.34;;;11.98;100.00
46347;BME280;32057;47.830;19.046;2022-10-29T05:01:41;101323.13;;;12.04;100.00
46347;BME280;32057;47.830;19.046;2022-10-29T05:04:07;101328.22;;;12.01;100.00
46347;BME280;32057;47.830;19.046;2022-10-29T05:06:32;101323.88;;;12.02;100.00
46347;BME280;32057;47.830;19.046;2022-10-29T05:08:57;101323.94;;;12.03;100.00
46347;BME280;32057;47.830;19.046;2022-10-29T05:11:23;101329.22;;;12.05;100.00
46347;BME280;32057;47.830;19.046;2022-10-29T05:13:48;101339.69;;;12.06;100.00
46347;BME280;32057;47.830;19.046;2022-10-29T05:16:14;101331.81;;;12.05;100.00
46347;BME280;32057;47.830;19.046;2022-10-29T05:18:39;101321.38;;;12.05;100.00
46347;BME280;32057;47.830;19.046;2022-10-29T05:21:04;101316.91;;;12.01;100.00
46347;BME280;32057;47.830;19.046;2022-10-29T05:23:31;101322.94;;;12.00;100.00
46347;BME280;32057;47.830;19.046;2022-10-29T05:25:56;101318.66;;;12.02;100.00
46347;BME280;32057;47.830;19.046;2022-10-29T05:28:22;101318.63;;;12.00;100.00
46347;BME280;32057;47.830;19.046;2022-10-29T05:30:49;101316.75;;;11.96;100.00
46347;BME280;32057;47.830;19.046;2022-10-29T05:33:21;101313.19;;;11.92;100.00
46347;BME280;32057;47.830;19.046;2022-10-29T05:35:47;101307.03;;;11.90;100.00
46347;BME280;32057;47.830;19.046;2022-10-29T05:38:13;101299.16;;;11.89;100.00
46347;BME280;32057;47.830;19.046;2022-10-29T05:40:40;101295.69;;;11.90;100.00
46347;BME280;32057;47.830;19.046;2022-10-29T05:43:06;101297.50;;;11.91;100.00
46347;BME280;32057;47.830;19.046;2022-10-29T05:45:32;101306.13;;;11.90;100.00
46347;BME280;32057;47.830;19.046;2022-10-29T05:47:59;101298.38;;;11.91;100.00
46347;BME280;32057;47.830;19.046;2022-10-29T05:50:26;101298.38;;;11.91;100.00
46347;BME280;32057;47.830;19.046;2022-10-29T05:53:00;101304.38;;;11.89;100.00
46347;BME280;32057;47.830;19.046;2022-10-29T05:55:28;101317.25;;;11.84;100.00
46347;BME280;32057;47.830;19.046;2022-10-29T05:57:55;101319.19;;;11.90;100.00
46347;BME280;32057;47.830;19.046;2022-10-29T06:00:21;101321.16;;;11.97;100.00
46347;BME280;32057;47.830;19.046;2022-10-29T06:02:47;101317.69;;;11.98;100.00
46347;BME280;32057;47.830;19.046;2022-10-29T06:05:12;101315.19;;;12.01;100.00
46347;BME280;32057;47.830;19.046;2022-10-29T06:07:37;101301.22;;;11.99;100.00
46347;BME280;32057;47.830;19.046;2022-10-29T06:10:03;101304.75;;;12.01;100.00
46347;BME280;32057;47.830;19.046;2022-10-29T06:12:32;101308.28;;;12.03;100.00
46347;BME280;32057;47.830;19.046;2022-10-29T06:14:58;101304.94;;;12.07;100.00
46347;BME280;32057;47.830;19.046;2022-10-29T06:17:23;101312.75;;;12.07;100.00
46347;BME280;32057;47.830;19.046;2022-10-29T06:19:49;101324.81;;;12.04;100.00
46347;BME280;32057;47.830;19.046;2022-10-29T06:22:14;101318.72;;;12.03;100.00
46347;BME280;32057;47.830;19.046;2022-10-29T06:24:40;101316.22;;;12.06;100.00
46347;BME280;32057;47.830;19.046;2022-10-29T06:27:05;101313.69;;;12.09;100.00
46347;BME280;32057;47.830;19.046;2022-10-29T06:29:30;101306.78;;;12.11;100.00
46347;BME280;32057;47.830;19.046;2022-10-29T06:31:56;101310.25;;;12.10;100.00
46347;BME280;32057;47.830;19.046;2022-10-29T06:34:21;101306.72;;;12.10;100.00
46347;BME280;32057;47.830;19.046;2022-10-29T06:36:46;101303.25;;;12.09;100.00
46347;BME280;32057;47.830;19.046;2022-10-29T06:39:12;101310.25;;;12.10;100.00
46347;BME280;32057;47.830;19.046;2022-10-29T06:41:37;101315.47;;;12.10;100.00
46347;BME280;32057;47.830;19.046;2022-10-29T06:44:03;101323.44;;;12.15;100.00
46347;BME280;32057;47.830;19.046;2022-10-29T06:46:28;101329.63;;;12.19;100.00
46347;BME280;32057;47.830;19.046;2022-10-29T06:48:55;101332.88;;;12.11;100.00
46347;BME280;32057;47.830;19.046;2022-10-29T06:51:20;101326.84;;;12.12;100.00
46347;BME280;32057;47.830;19.046;2022-10-29T06:53:47;101327.84;;;12.18;100.00
46347;BME280;32057;47.830;19.046;2022-10-29T06:56:13;101326.16;;;12.20;100.00
46347;BME280;32057;47.830;19.046;2022-10-29T06:58:38;101333.22;;;12.22;100.00
46347;BME280;32057;47.830;19.046;2022-10-29T07:01:04;101332.28;;;12.20;100.00
46347;BME280;32057;47.830;19.046;2022-10-29T07:03:29;101326.16;;;12.20;100.00
46347;BME280;32057;47.830;19.046;2022-10-29T07:05:56;101329.69;;;12.22;100.00
46347;BME280;32057;47.830;19.046;2022-10-29T07:08:22;101324.59;;;12.25;100.00
46347;BME280;32057;47.830;19.046;2022-10-29T07:10:52;101314.03;;;12.22;100.00
46347;BME280;32057;47.830;19.046;2022-10-29T07:13:18;101321.00;;;12.21;100.00
46347;BME280;32057;47.830;19.046;2022-10-29T07:15:43;101321.13;;;12.26;100.00
46347;BME280;32057;47.830;19.046;2022-10-29T07:18:09;101326.44;;;12.29;100.00
46347;BME280;32057;47.830;19.046;2022-10-29T07:20:40;101313.44;;;12.30;100.00
46347;BME280;32057;47.830;19.046;2022-10-29T07:23:06;101313.34;;;12.27;100.00
46347;BME280;32057;47.830;19.046;2022-10-29T07:25:32;101321.22;;;12.29;100.00
46347;BME280;32057;47.830;19.046;2022-10-29T07:28:16;101312.63;;;12.33;100.00
46347;BME280;32057;47.830;19.046;2022-10-29T07:30:42;101311.88;;;12.37;100.00
46347;BME280;32057;47.830;19.046;2022-10-29T07:33:08;101322.31;;;12.37;100.00
46347;BME280;32057;47.830;19.046;2022-10-29T07:35:34;101325.00;;;12.39;100.00
46347;BME280;32057;47.830;19.046;2022-10-29T07:38:01;101326.72;;;12.38;100.00
46347;BME280;32057;47.830;19.046;2022-10-29T07:40:27;101340.66;;;12.39;100.00
46347;BME280;32057;47.830;19.046;2022-10-29T07:42:53;101345.94;;;12.40;100.00
46347;BME280;32057;47.830;19.046;2022-10-29T07:45:19;101345.94;;;12.40;100.00
46347;BME280;32057;47.830;19.046;2022-10-29T07:47:45;101347.69;;;12.41;100.00
46347;BME280;32057;47.830;19.046;2022-10-29T07:50:11;101344.13;;;12.39;100.00
46347;BME280;32057;47.830;19.046;2022-10-29T07:52:38;101345.06;;;12.41;100.00
46347;BME280;32057;47.830;19.046;2022-10-29T07:55:04;101340.72;;;12.42;100.00
46347;BME280;32057;47.830;19.046;2022-10-29T07:57:29;101333.81;;;12.42;100.00
46347;BME280;32057;47.830;19.046;2022-10-29T07:59:54;101326.78;;;12.41;100.00
46347;BME280;32057;47.830;19.046;2022-10-29T08:02:20;101325.97;;;12.42;100.00
46347;BME280;32057;47.830;19.046;2022-10-29T08:04:45;101325.97;;;12.42;100.00
46347;BME280;32057;47.830;19.046;2022-10-29T08:07:11;101329.47;;;12.43;100.00
46347;BME280;32057;47.830;19.046;2022-10-29T08:09:36;101323.38;;;12.42;100.00
46347;BME280;32057;47.830;19.046;2022-10-29T08:12:01;101325.13;;;12.43;100.00
46347;BME280;32057;47.830;19.046;2022-10-29T08:14:29;101323.44;;;12.45;100.00
46347;BME280;32057;47.830;19.046;2022-10-29T08:16:54;101325.38;;;12.52;100.00
46347;BME280;32057;47.830;19.046;2022-10-29T08:19:20;101329.69;;;12.52;100.00
46347;BME280;32057;47.830;19.046;2022-10-29T08:21:46;101328.00;;;12.54;100.00
46347;BME280;32057;47.830;19.046;2022-10-29T08:24:11;101329.00;;;12.58;100.00
46347;BME280;32057;47.830;19.046;2022-10-29T08:26:36;101329.00;;;12.58;100.00
46347;BME280;32057;47.830;19.046;2022-10-29T08:29:02;101324.63;;;12.57;100.00
46347;BME280;32057;47.830;19.046;2022-10-29T08:31:28;101322.78;;;12.54;100.00
46347;BME280;32057;47.830;19.046;2022-10-29T08:33:53;101330.78;;;12.59;100.00
46347;BME280;32057;47.830;19.046;2022-10-29T08:36:18;101330.84;;;12.62;100.00
46347;BME280;32057;47.830;19.046;2022-10-29T08:38:45;101326.47;;;12.61;100.00
46347;BME280;32057;47.830;19.046;2022-10-29T08:41:34;101321.25;;;12.61;100.00
46347;BME280;32057;47.830;19.046;2022-10-29T08:44:19;101318.66;;;12.61;100.00
46347;BME280;32057;47.830;19.046;2022-10-29T08:46:55;101321.31;;;12.62;100.00
46347;BME280;32057;47.830;19.046;2022-10-29T08:52:03;101320.38;;;12.60;100.00
46347;BME280;32057;47.830;19.046;2022-10-29T08:54:34;101318.66;;;12.61;100.00
46347;BME280;32057;47.830;19.046;2022-10-29T08:57:15;101316.00;;;12.59;100.00
46347;BME280;32057;47.830;19.046;2022-10-29T09:00:06;101313.25;;;12.54;100.00
46347;BME280;32057;47.830;19.046;2022-10-29T09:02:32;101318.47;;;12.54;100.00
46347;BME280;32057;47.830;19.046;2022-10-29T09:04:58;101319.47;;;12.58;100.00
46347;BME280;32057;47.830;19.046;2022-10-29T09:07:56;101320.22;;;12.55;100.00
46347;BME280;32057;47.830;19.046;2022-10-29T09:13:25;101322.63;;;12.48;100.00
46347;BME280;32057;47.830;19.046;2022-10-29T09:29:25;101318.00;;;12.69;100.00
46347;BME280;32057;47.830;19.046;2022-10-29T09:31:58;101309.41;;;12.73;100.00
46347;BME280;32057;47.830;19.046;2022-10-29T09:37:14;101315.94;;;12.89;100.00
46347;BME280;32057;47.830;19.046;2022-10-29T09:39:41;101312.50;;;12.90;100.00
46347;BME280;32057;47.830;19.046;2022-10-29T09:42:11;101304.50;;;12.86;100.00
46347;BME280;32057;47.830;19.046;2022-10-29T09:44:47;101312.25;;;12.81;100.00
46347;BME280;32057;47.830;19.046;2022-10-29T09:50:21;101307.72;;;12.75;100.00
46347;BME280;32057;47.830;19.046;2022-10-29T09:52:48;101309.56;;;12.78;100.00
46347;BME280;32057;47.830;19.046;2022-10-29T09:57:42;101309.72;;;12.84;100.00
46347;BME280;32057;47.830;19.046;2022-10-29T10:05:32;101296.56;;;12.81;100.00
46347;BME280;32057;47.830;19.046;2022-10-29T10:08:06;101295.19;;;12.95;100.00
46347;BME280;32057;47.830;19.046;2022-10-29T10:10:33;101288.22;;;12.94;100.00
46347;BME280;32057;47.830;19.046;2022-10-29T10:13:04;101290.91;;;12.98;100.00
46347;BME280;32057;47.830;19.046;2022-10-29T10:15:33;101293.44;;;12.94;100.00
46347;BME280;32057;47.830;19.046;2022-10-29T10:18:05;101290.06;;;12.99;100.00
46347;BME280;32057;47.830;19.046;2022-10-29T10:20:42;101283.88;;;12.95;100.00
46347;BME280;32057;47.830;19.046;2022-10-29T10:23:19;101281.22;;;12.93;100.00
46347;BME280;32057;47.830;19.046;2022-10-29T10:25:46;101282.84;;;12.88;100.00
46347;BME280;32057;47.830;19.046;2022-10-29T10:28:29;101289.94;;;12.94;100.00
46347;BME280;32057;47.830;19.046;2022-10-29T10:31:12;101286.44;;;12.93;100.00
46347;BME280;32057;47.830;19.046;2022-10-29T10:33:53;101283.81;;;12.93;100.00
46347;BME280;32057;47.830;19.046;2022-10-29T10:36:27;101286.44;;;12.93;100.00
46347;BME280;32057;47.830;19.046;2022-10-29T10:38:58;101278.56;;;12.92;100.00
46347;BME280;32057;47.830;19.046;2022-10-29T10:41:27;101280.50;;;12.99;100.00
46347;BME280;32057;47.830;19.046;2022-10-29T10:43:55;101275.13;;;12.93;100.00
46347;BME280;32057;47.830;19.046;2022-10-29T10:46:42;101272.59;;;12.98;100.00
46347;BME280;32057;47.830;19.046;2022-10-29T10:49:17;101268.09;;;12.92;100.00
46347;BME280;32057;47.830;19.046;2022-10-29T10:51:44;101269.06;;;12.95;100.00
46347;BME280;32057;47.830;19.046;2022-10-29T10:54:28;101271.72;;;12.97;100.00
46347;BME280;32057;47.830;19.046;2022-10-29T10:57:01;101257.91;;;13.01;100.00
46347;BME280;32057;47.830;19.046;2022-10-29T10:59:56;101262.31;;;13.04;100.00
46347;BME280;32057;47.830;19.046;2022-10-29T11:04:58;101259.78;;;13.07;100.00
46347;BME280;32057;47.830;19.046;2022-10-29T11:07:29;101260.78;;;13.12;100.00
46347;BME280;32057;47.830;19.046;2022-10-29T11:09:58;101253.84;;;13.12;100.00
46347;BME280;32057;47.830;19.046;2022-10-29T11:12:29;101244.31;;;13.14;100.00
46347;BME280;32057;47.830;19.046;2022-10-29T11:17:39;101239.84;;;13.12;100.00
46347;BME280;32057;47.830;19.046;2022-10-29T11:20:26;101246.97;;;13.16;100.00
46347;BME280;32057;47.830;19.046;2022-10-29T11:26:04;101231.28;;;13.16;100.00
46347;BME280;32057;47.830;19.046;2022-10-29T11:31:57;101232.78;;;13.08;100.00
46347;BME280;32057;47.830;19.046;2022-10-29T11:34:53;101222.53;;;13.15;100.00
46347;BME280;32057;47.830;19.046;2022-10-29T11:43:03;101220.19;;;13.26;100.00
46347;BME280;32057;47.830;19.046;2022-10-29T11:48:48;101213.16;;;13.24;100.00
46347;BME280;32057;47.830;19.046;2022-10-29T11:53:54;101210.38;;;13.16;100.00
46347;BME280;32057;47.830;19.046;2022-10-29T12:05:03;101185.22;;;13.21;100.00
46347;BME280;32057;47.830;19.046;2022-10-29T12:07:56;101188.09;;;13.30;100.00
46347;BME280;32057;47.830;19.046;2022-10-29T12:30:05;101175.16;;;13.37;100.00
46347;BME280;32057;47.830;19.046;2022-10-29T12:35:46;101174.03;;;13.27;100.00
46347;BME280;32057;47.830;19.046;2022-10-29T12:38:31;101174.84;;;13.24;100.00
46347;BME280;32057;47.830;19.046;2022-10-29T12:41:19;101168.84;;;13.28;100.00
46347;BME280;32057;47.830;19.046;2022-10-29T12:43:47;101167.22;;;13.32;100.00
46347;BME280;32057;47.830;19.046;2022-10-29T12:51:53;101169.84;;;13.33;100.00
46347;BME280;32057;47.830;19.046;2022-10-29T12:56:54;101171.66;;;13.36;100.00
46347;BME280;32057;47.830;19.046;2022-10-29T13:01:49;101177.69;;;13.32;100.00
46347;BME280;32057;47.830;19.046;2022-10-29T13:09:33;101175.94;;;13.32;100.00
46347;BME280;32057;47.830;19.046;2022-10-29T13:12:08;101172.53;;;13.37;100.00
46347;BME280;32057;47.830;19.046;2022-10-29T13:15:03;101161.16;;;13.34;100.00
46347;BME280;32057;47.830;19.046;2022-10-29T13:17:35;101160.09;;;13.26;100.00
46347;BME280;32057;47.830;19.046;2022-10-29T13:20:25;101152.41;;;13.32;100.00
46347;BME280;32057;47.830;19.046;2022-10-29T13:22:56;101153.06;;;13.25;100.00
46347;BME280;32057;47.830;19.046;2022-10-29T13:30:39;101146.16;;;13.27;100.00
46347;BME280;32057;47.830;19.046;2022-10-29T13:41:24;101134.72;;;13.24;100.00
46347;BME280;32057;47.830;19.046;2022-10-29T13:46:53;101135.03;;;13.34;100.00
46347;BME280;32057;47.830;19.046;2022-10-29T13:49:47;101125.44;;;13.35;100.00
46347;BME280;32057;47.830;19.046;2022-10-29T13:52:18;101120.31;;;13.40;100.00
46347;BME280;32057;47.830;19.046;2022-10-29T13:55:05;101133.38;;;13.38;100.00
46347;BME280;32057;47.830;19.046;2022-10-29T13:57:34;101130.72;;;13.37;100.00
46347;BME280;32057;47.830;19.046;2022-10-29T14:02:33;101140.47;;;13.45;100.00
46347;BME280;32057;47.830;19.046;2022-10-29T14:07:52;101143.00;;;13.41;100.00
46347;BME280;32057;47.830;19.046;2022-10-29T14:10:23;101143.00;;;13.41;100.00
46347;BME280;32057;47.830;19.046;2022-10-29T14:12:54;101131.72;;;13.43;100.00
46347;BME280;32057;47.830;19.046;2022-10-29T14:15:21;101135.16;;;13.41;100.00
46347;BME280;32057;47.830;19.046;2022-10-29T14:17:46;101130.84;;;13.43;100.00
46347;BME280;32057;47.830;19.046;2022-10-29T14:20:26;101140.44;;;13.42;100.00
46347;BME280;32057;47.830;19.046;2022-10-29T14:22:52;101147.38;;;13.42;100.00
46347;BME280;32057;47.830;19.046;2022-10-29T14:28:09;101129.97;;;13.42;100.00
46347;BME280;32057;47.830;19.046;2022-10-29T14:30:35;101136.06;;;13.43;100.00
46347;BME280;32057;47.830;19.046;2022-10-29T14:33:01;101130.84;;;13.43;100.00
46347;BME280;32057;47.830;19.046;2022-10-29T14:35:40;101138.69;;;13.43;100.00
46347;BME280;32057;47.830;19.046;2022-10-29T14:38:06;101126.44;;;13.40;100.00
46347;BME280;32057;47.830;19.046;2022-10-29T14:40:32;101137.78;;;13.41;100.00
46347;BME280;32057;47.830;19.046;2022-10-29T14:42:57;101129.88;;;13.39;100.00
46347;BME280;32057;47.830;19.046;2022-10-29T14:45:29;101122.00;;;13.38;100.00
46347;BME280;32057;47.830;19.046;2022-10-29T14:48:00;101116.78;;;13.38;100.00
46347;BME280;32057;47.830;19.046;2022-10-29T14:50:30;101123.69;;;13.35;100.00
46347;BME280;32057;47.830;19.046;2022-10-29T14:52:57;101112.38;;;13.35;100.00
46347;BME280;32057;47.830;19.046;2022-10-29T14:55:32;101115.03;;;13.37;100.00
46347;BME280;32057;47.830;19.046;2022-10-29T14:58:04;101111.50;;;13.34;100.00
46347;BME280;32057;47.830;19.046;2022-10-29T15:00:33;101104.53;;;13.35;100.00
46347;BME280;32057;47.830;19.046;2022-10-29T15:03:01;101107.09;;;13.32;100.00
46347;BME280;32057;47.830;19.046;2022-10-29T15:05:33;101116.66;;;13.31;100.00
46347;BME280;32057;47.830;19.046;2022-10-29T15:10:28;101100.09;;;13.31;100.00
46347;BME280;32057;47.830;19.046;2022-10-29T15:12:54;101103.56;;;13.31;100.00